createdAt,value
2019-04-25T00:01:52.333Z,0.93
2019-04-25T00:04:22.127Z,0.60
2019-04-25T00:06:52.026Z,0.73
2019-04-25T00:09:22.299Z,0.80
2019-04-25T00:11:52.324Z,0.67
2019-04-25T00:14:22.415Z,0.70
2019-04-25T00:16:52.463Z,0.70
2019-04-25T00:19:21.918Z,0.80
2019-04-25T00:22:02.016Z,0.90
2019-04-25T00:24:34.899Z,0.73
2019-04-25T00:27:03.413Z,1.13
2019-04-25T00:29:31.964Z,1.00
2019-04-25T00:32:01.645Z,0.77
2019-04-25T00:34:31.895Z,0.60
2019-04-25T00:37:02.303Z,0.70
2019-04-25T00:39:31.949Z,0.80
2019-04-25T00:42:02.153Z,0.70
2019-04-25T00:44:31.942Z,1.00
2019-04-25T00:47:02.261Z,1.00
2019-04-25T00:49:32.088Z,1.00
2019-04-25T00:52:02.035Z,0.83
2019-04-25T00:54:31.372Z,0.80
2019-04-25T00:56:59.874Z,1.10
2019-04-25T00:59:31.939Z,0.80
2019-04-25T01:02:13.715Z,1.10
2019-04-25T01:04:43.721Z,0.90
2019-04-25T01:07:12.668Z,1.43
2019-04-25T01:09:42.315Z,0.87
2019-04-25T01:12:11.557Z,0.80
2019-04-25T01:14:41.858Z,1.00
2019-04-25T01:17:11.674Z,1.20
2019-04-25T01:19:40.226Z,1.40
2019-04-25T01:22:09.303Z,1.70
2019-04-25T01:24:37.899Z,1.37
2019-04-25T01:27:07.176Z,1.10
2019-04-25T01:29:35.673Z,1.20
2019-04-25T01:32:05.362Z,1.50
2019-04-25T01:34:38.143Z,1.90
2019-04-25T01:37:11.224Z,1.93
2019-04-25T01:39:47.541Z,2.13
2019-04-25T01:42:17.799Z,2.33
2019-04-25T01:44:48.057Z,2.03
2019-04-25T01:47:16.882Z,2.27
2019-04-25T01:49:45.314Z,2.10
2019-04-25T01:52:14.601Z,2.40
2019-04-25T01:54:43.729Z,1.80
2019-04-25T01:57:14.291Z,2.10
2019-04-25T01:59:43.861Z,1.50
2019-04-25T02:02:14.294Z,1.50
2019-04-25T02:04:44.242Z,1.20
2019-04-25T02:07:13.514Z,1.57
2019-04-25T02:09:43.528Z,1.30
2019-04-25T02:12:15.453Z,1.00
2019-04-25T02:14:44.321Z,1.70
2019-04-25T02:17:14.178Z,1.17
2019-04-25T02:19:44.165Z,1.10
2019-04-25T02:22:14.438Z,1.40
2019-04-25T02:24:43.692Z,1.10
2019-04-25T02:27:13.408Z,1.03
2019-04-25T02:29:43.260Z,1.33
2019-04-25T02:32:14.275Z,1.03
2019-04-25T02:34:45.294Z,1.20
2019-04-25T02:37:14.602Z,1.30
2019-04-25T02:39:44.782Z,1.20
2019-04-25T02:42:14.308Z,1.00
2019-04-25T02:44:44.946Z,1.43
2019-04-25T02:47:17.741Z,1.10
2019-04-25T02:50:08.579Z,1.00
2019-04-25T02:52:37.893Z,1.20
2019-04-25T02:55:10.615Z,2.10
2019-04-25T02:57:37.261Z,1.20
2019-04-25T03:00:08.921Z,1.77
2019-04-25T03:02:37.547Z,1.70
2019-04-25T03:05:09.581Z,1.43
2019-04-25T03:07:36.369Z,1.53
2019-04-25T03:10:09.357Z,1.37
2019-04-25T03:12:37.286Z,1.80
2019-04-25T03:15:08.419Z,1.80
2019-04-25T03:17:36.206Z,1.60
2019-04-25T03:20:11.603Z,1.90
2019-04-25T03:22:39.752Z,2.77
2019-04-25T03:25:12.790Z,2.13
2019-04-25T03:27:38.526Z,2.67
2019-04-25T03:30:11.805Z,2.70
2019-04-25T03:32:38.180Z,2.73
2019-04-25T03:35:07.136Z,3.60
2019-04-25T03:37:35.700Z,3.47
2019-04-25T03:40:06.975Z,3.37
2019-04-25T03:42:36.271Z,2.90
2019-04-25T03:45:06.134Z,3.43
2019-04-25T03:47:34.842Z,3.70
2019-04-25T03:50:06.114Z,3.60
2019-04-25T03:52:35.652Z,2.93
2019-04-25T03:55:07.409Z,3.30
2019-04-25T03:57:36.258Z,2.80
2019-04-25T04:00:06.660Z,3.13
2019-04-25T04:02:35.962Z,2.60
2019-04-25T04:05:06.910Z,2.60
2019-04-25T04:07:35.875Z,3.00
2019-04-25T04:10:06.638Z,2.60
2019-04-25T04:12:35.639Z,2.13
2019-04-25T04:15:06.137Z,2.80
2019-04-25T04:17:37.086Z,2.50
2019-04-25T04:20:08.890Z,2.17
2019-04-25T04:22:39.265Z,2.03
2019-04-25T04:25:09.565Z,1.83
2019-04-25T04:27:38.039Z,1.73
2019-04-25T04:30:07.994Z,1.70
2019-04-25T04:32:36.523Z,1.87
2019-04-25T04:35:07.158Z,1.63
2019-04-25T04:37:35.727Z,1.70
2019-04-25T04:40:05.719Z,1.77
2019-04-25T04:42:34.175Z,2.70
2019-04-25T04:45:03.581Z,1.50
2019-04-25T04:47:33.286Z,1.40
2019-04-25T04:50:03.751Z,1.43
2019-04-25T04:52:33.993Z,2.30
2019-04-25T04:55:06.288Z,1.30
2019-04-25T04:57:35.832Z,1.27
2019-04-25T05:00:03.727Z,1.17
2019-04-25T05:02:36.569Z,1.20
2019-04-25T05:05:17.150Z,1.27
2019-04-25T05:07:50.279Z,1.80
2019-04-25T05:10:19.964Z,1.10
2019-04-25T05:12:48.542Z,1.70
2019-04-25T05:15:18.006Z,1.20
2019-04-25T05:17:47.417Z,1.20
2019-04-25T05:20:17.330Z,1.43
2019-04-25T05:22:46.015Z,1.23
2019-04-25T05:25:16.210Z,1.20
2019-04-25T05:27:57.822Z,1.30
2019-04-25T05:30:19.311Z,1.00
2019-04-25T05:32:47.870Z,1.17
2019-04-25T05:35:16.416Z,1.00
2019-04-25T05:37:44.983Z,1.20
2019-04-25T05:40:15.777Z,1.20
2019-04-25T05:43:03.421Z,1.13
2019-04-25T05:45:34.060Z,0.97
2019-04-25T05:48:05.750Z,0.97
2019-04-25T05:50:33.855Z,1.00
2019-04-25T05:53:04.149Z,0.90
2019-04-25T05:55:34.180Z,0.90
2019-04-25T05:58:03.829Z,1.23
2019-04-25T06:00:34.015Z,1.27
2019-04-25T06:03:03.587Z,1.20
2019-04-25T06:05:33.557Z,1.20
2019-04-25T06:08:04.095Z,1.40
2019-04-25T06:10:34.126Z,1.10
2019-04-25T06:13:23.251Z,0.90
2019-04-25T06:15:53.377Z,1.03
2019-04-25T06:18:29.642Z,0.97
2019-04-25T06:20:58.081Z,1.00
2019-04-25T06:23:44.331Z,0.73
2019-04-25T06:26:23.035Z,1.70
2019-04-25T06:28:53.848Z,0.80
2019-04-25T06:31:15.474Z,0.90
2019-04-25T06:33:43.939Z,1.30
2019-04-25T06:36:13.923Z,1.10
2019-04-25T06:38:44.277Z,1.07
2019-04-25T06:41:13.469Z,1.10
2019-04-25T06:43:44.213Z,0.97
2019-04-25T06:46:30.607Z,1.10
2019-04-25T06:49:03.563Z,1.00
2019-04-25T06:51:51.838Z,1.13
2019-04-25T06:54:21.740Z,1.20
2019-04-25T06:56:50.540Z,1.07
2019-04-25T06:59:19.027Z,1.07
2019-04-25T07:01:47.633Z,1.00
2019-04-25T07:04:16.073Z,0.90
2019-04-25T07:06:45.627Z,1.03
2019-04-25T07:09:14.673Z,0.80
2019-04-25T07:11:44.068Z,0.80
2019-04-25T07:14:14.086Z,0.87
2019-04-25T07:16:43.375Z,0.90
2019-04-25T07:19:11.930Z,0.87
2019-04-25T07:21:40.374Z,1.00
2019-04-25T07:24:08.894Z,0.80
2019-04-25T07:26:44.966Z,0.80
2019-04-25T07:29:33.763Z,0.87
2019-04-25T07:32:14.456Z,0.70
2019-04-25T07:34:43.795Z,0.80
2019-04-25T07:37:13.265Z,1.17
2019-04-25T07:39:41.753Z,0.83
2019-04-25T07:42:10.186Z,0.80
2019-04-25T07:44:49.824Z,1.50
2019-04-25T07:47:08.805Z,1.00
2019-04-25T07:49:37.905Z,1.70
2019-04-25T07:52:06.549Z,1.43
2019-04-25T07:54:35.483Z,1.27
2019-04-25T07:57:05.381Z,0.70
2019-04-25T07:59:35.362Z,0.90
2019-04-25T08:02:04.544Z,0.70
2019-04-25T08:04:34.874Z,0.97
2019-04-25T08:07:04.181Z,0.70
2019-04-25T08:09:34.524Z,1.27
2019-04-25T08:12:03.364Z,0.90
2019-04-25T08:14:36.190Z,0.77
2019-04-25T08:17:06.483Z,1.30
2019-04-25T08:19:35.599Z,0.70
2019-04-25T08:22:04.694Z,0.63
2019-04-25T08:24:35.861Z,0.80
2019-04-25T08:27:05.455Z,0.70
2019-04-25T08:29:36.338Z,0.90
2019-04-25T08:32:04.615Z,1.00
2019-04-25T08:34:34.821Z,0.60
2019-04-25T08:37:04.083Z,1.07
2019-04-25T08:39:34.030Z,0.80
2019-04-25T08:42:03.489Z,1.17
2019-04-25T08:44:33.052Z,0.80
2019-04-25T08:47:04.372Z,0.83
2019-04-25T08:49:34.866Z,0.80
2019-04-25T08:52:04.184Z,0.70
2019-04-25T08:54:40.912Z,1.07
2019-04-25T08:57:08.834Z,0.73
2019-04-25T08:59:47.227Z,0.90
2019-04-25T09:02:28.322Z,0.60
2019-04-25T09:04:58.435Z,0.70
2019-04-25T09:07:27.024Z,0.80
2019-04-25T09:09:57.026Z,0.70
2019-04-25T09:12:25.534Z,1.10
2019-04-25T09:14:54.240Z,0.93
2019-04-25T09:17:24.206Z,0.87
2019-04-25T09:19:54.220Z,0.60
2019-04-25T09:22:24.246Z,0.90
2019-04-25T09:24:53.933Z,1.40
2019-04-25T09:27:23.478Z,0.80
2019-04-25T09:29:52.105Z,0.70
2019-04-25T09:32:20.549Z,0.90
2019-04-25T09:34:48.988Z,0.83
2019-04-25T09:37:17.462Z,0.90
2019-04-25T09:40:05.707Z,0.70
2019-04-25T09:42:35.629Z,0.80
2019-04-25T09:45:24.664Z,0.77
2019-04-25T09:48:05.740Z,0.80
2019-04-25T09:50:39.586Z,0.90
2019-04-25T09:53:15.474Z,1.07
2019-04-25T09:55:54.144Z,0.90
2019-04-25T09:58:36.580Z,0.77
2019-04-25T10:01:13.873Z,1.00
2019-04-25T10:03:43.604Z,1.07
2019-04-25T10:06:16.344Z,0.80
2019-04-25T10:08:46.026Z,1.10
2019-04-25T10:11:14.855Z,1.00
2019-04-25T10:13:46.596Z,1.07
2019-04-25T10:16:15.103Z,0.77
2019-04-25T10:18:44.585Z,0.90
2019-04-25T10:21:14.458Z,0.70
2019-04-25T10:23:44.074Z,1.10
2019-04-25T10:26:13.597Z,0.77
2019-04-25T10:28:44.052Z,0.80
2019-04-25T10:31:13.621Z,0.90
2019-04-25T10:33:45.275Z,0.90
2019-04-25T10:36:14.311Z,0.77
2019-04-25T10:38:44.424Z,0.83
2019-04-25T10:41:14.220Z,0.77
2019-04-25T10:43:43.900Z,0.53
2019-04-25T10:46:14.151Z,0.80
2019-04-25T10:48:43.749Z,0.90
2019-04-25T10:51:13.973Z,0.77
2019-04-25T10:53:45.388Z,0.70
2019-04-25T10:56:14.162Z,1.10
2019-04-25T10:58:44.458Z,0.60
2019-04-25T11:01:15.084Z,0.73
2019-04-25T11:03:51.635Z,0.80
2019-04-25T11:06:23.390Z,1.20
2019-04-25T11:08:51.859Z,1.10
2019-04-25T11:11:20.431Z,1.27
2019-04-25T11:13:48.886Z,0.83
2019-04-25T11:16:17.363Z,1.00
2019-04-25T11:18:46.433Z,0.80
2019-04-25T11:21:15.330Z,0.90
2019-04-25T11:23:44.994Z,1.20
2019-04-25T11:26:14.186Z,0.80
2019-04-25T11:28:45.294Z,1.13
2019-04-25T11:31:15.045Z,1.67
2019-04-25T11:33:43.969Z,0.90
2019-04-25T11:36:13.337Z,1.00
2019-04-25T11:38:53.716Z,0.90
2019-04-25T11:41:24.259Z,1.00
2019-04-25T11:43:55.285Z,0.80
2019-04-25T11:46:24.201Z,0.80
2019-04-25T11:48:54.711Z,1.30
2019-04-25T11:51:23.986Z,0.60
2019-04-25T11:53:54.257Z,0.80
2019-04-25T11:56:24.164Z,0.90
2019-04-25T11:58:54.151Z,0.93
2019-04-25T12:01:24.324Z,0.67
2019-04-25T12:03:54.859Z,1.00
2019-04-25T12:06:24.379Z,0.70
2019-04-25T12:08:54.237Z,1.00
2019-04-25T12:11:23.616Z,0.70
2019-04-25T12:13:53.810Z,0.70
2019-04-25T12:16:22.529Z,1.03
2019-04-25T12:18:51.789Z,0.93
2019-04-25T12:21:20.698Z,0.80
2019-04-25T12:23:49.142Z,1.57
2019-04-25T12:26:17.646Z,0.93
2019-04-25T12:28:46.090Z,0.90
2019-04-25T12:31:14.813Z,1.10
2019-04-25T12:33:46.024Z,0.70
2019-04-25T12:36:13.663Z,0.80
2019-04-25T12:38:43.863Z,1.00
2019-04-25T12:41:12.494Z,1.00
2019-04-25T12:43:43.895Z,1.27
2019-04-25T12:46:14.047Z,0.70
2019-04-25T12:48:43.196Z,0.80
2019-04-25T12:51:13.375Z,0.70
2019-04-25T12:53:43.731Z,1.00
2019-04-25T12:56:12.370Z,0.93
2019-04-25T12:58:40.844Z,1.33
2019-04-25T13:01:09.622Z,0.70
2019-04-25T13:03:38.076Z,0.80
2019-04-25T13:06:06.539Z,1.00
2019-04-25T13:08:34.973Z,0.90
2019-04-25T13:11:09.868Z,1.03
2019-04-25T13:13:34.019Z,0.67
2019-04-25T13:16:04.257Z,2.83
2019-04-25T13:18:32.838Z,0.90
2019-04-25T13:21:01.285Z,1.00
2019-04-25T13:23:31.859Z,0.90
2019-04-25T13:25:59.981Z,2.10
2019-04-25T13:28:39.241Z,1.73
2019-04-25T13:31:14.654Z,0.73
2019-04-25T13:33:46.813Z,0.87
2019-04-25T13:36:19.813Z,0.70
2019-04-25T13:38:48.263Z,0.80
2019-04-25T13:41:16.906Z,1.10
2019-04-25T13:43:45.366Z,1.40
2019-04-25T13:46:16.998Z,0.63
2019-04-25T13:48:43.983Z,0.70
2019-04-25T13:51:14.034Z,0.83
2019-04-25T13:53:43.455Z,0.70
2019-04-25T13:56:13.291Z,0.80
2019-04-25T13:58:41.913Z,0.87
2019-04-25T14:01:15.138Z,1.17
2019-04-25T14:03:42.321Z,0.80
2019-04-25T14:06:10.897Z,1.07
2019-04-25T14:08:39.409Z,0.80
2019-04-25T14:11:08.014Z,0.80
2019-04-25T14:13:36.466Z,0.60
2019-04-25T14:16:07.001Z,0.90
2019-04-25T14:18:49.104Z,0.80
2019-04-25T14:21:19.191Z,0.90
2019-04-25T14:23:47.707Z,0.77
2019-04-25T14:26:16.155Z,1.30
2019-04-25T14:28:44.670Z,0.80
2019-04-25T14:31:30.326Z,0.80
2019-04-25T14:33:44.918Z,1.37
2019-04-25T14:36:13.435Z,0.60
2019-04-25T14:38:41.950Z,0.70
2019-04-25T14:41:11.571Z,1.20
2019-04-25T14:43:40.019Z,0.70
2019-04-25T14:46:08.446Z,0.60
2019-04-25T14:48:36.894Z,0.93
2019-04-25T14:51:05.356Z,0.70
2019-04-25T14:53:35.143Z,0.70
2019-04-25T14:56:17.402Z,0.90
2019-04-25T14:58:46.524Z,0.70
2019-04-25T15:01:16.471Z,0.80
2019-04-25T15:03:44.925Z,0.60
2019-04-25T15:06:13.426Z,0.80
2019-04-25T15:08:41.879Z,0.80
2019-04-25T15:11:10.456Z,0.80
2019-04-25T15:13:38.899Z,0.90
2019-04-25T15:16:07.348Z,0.60
2019-04-25T15:18:46.112Z,0.70
2019-04-25T15:21:06.408Z,0.80
2019-04-25T15:23:35.810Z,0.80
2019-04-25T15:26:04.561Z,0.73
2019-04-25T15:28:33.070Z,0.60
2019-04-25T15:31:01.522Z,0.80
2019-04-25T15:33:30.303Z,0.80
2019-04-25T15:36:05.995Z,0.73
2019-04-25T15:38:41.870Z,0.50
2019-04-25T15:41:24.950Z,0.83
2019-04-25T15:44:00.671Z,0.70
2019-04-25T15:46:30.746Z,1.00
2019-04-25T15:48:59.270Z,1.00
2019-04-25T15:51:27.720Z,0.73
2019-04-25T15:53:56.158Z,0.70
2019-04-25T15:56:24.610Z,1.00
2019-04-25T15:58:53.078Z,1.00
2019-04-25T16:01:21.763Z,0.83
2019-04-25T16:03:52.424Z,0.70
2019-04-25T16:06:21.306Z,0.97
2019-04-25T16:08:49.770Z,0.80
2019-04-25T16:11:18.214Z,1.00
2019-04-25T16:13:46.685Z,0.70
2019-04-25T16:16:15.132Z,0.70
2019-04-25T16:18:43.605Z,0.90
2019-04-25T16:21:12.408Z,0.70
2019-04-25T16:23:40.894Z,0.80
2019-04-25T16:26:09.518Z,0.53
2019-04-25T16:28:37.995Z,0.97
2019-04-25T16:31:08.111Z,0.70
2019-04-25T16:33:36.584Z,0.67
2019-04-25T16:36:06.114Z,1.10
2019-04-25T16:38:35.351Z,0.60
2019-04-25T16:41:05.375Z,0.70
2019-04-25T16:43:35.508Z,0.70
2019-04-25T16:46:03.950Z,0.90
2019-04-25T16:48:32.479Z,0.77
2019-04-25T16:51:00.994Z,0.63
2019-04-25T16:53:30.289Z,0.67
2019-04-25T16:55:59.778Z,0.70
2019-04-25T16:58:28.613Z,0.60
2019-04-25T17:00:59.698Z,0.60
2019-04-25T17:03:29.942Z,0.87
2019-04-25T17:05:58.473Z,0.80
2019-04-25T17:08:27.011Z,1.13
2019-04-25T17:10:55.511Z,0.83
2019-04-25T17:13:25.118Z,0.70
2019-04-25T17:15:55.380Z,0.77
2019-04-25T17:18:25.446Z,0.60
2019-04-25T17:20:55.615Z,0.83
2019-04-25T17:23:24.058Z,0.80
2019-04-25T17:25:52.527Z,0.90
2019-04-25T17:28:21.450Z,0.60
2019-04-25T17:30:51.566Z,0.70
2019-04-25T17:33:21.798Z,1.07
2019-04-25T17:36:06.784Z,1.03
2019-04-25T17:38:37.570Z,0.80
2019-04-25T17:41:06.134Z,0.80
2019-04-25T17:43:34.759Z,0.70
2019-04-25T17:46:05.083Z,0.60
2019-04-25T17:48:34.127Z,0.60
2019-04-25T17:51:02.660Z,0.80
2019-04-25T17:53:31.106Z,1.00
2019-04-25T17:55:59.662Z,0.70
2019-04-25T17:58:28.106Z,0.77
2019-04-25T18:00:56.574Z,0.80
2019-04-25T18:03:25.274Z,0.60
2019-04-25T18:05:53.743Z,0.80
2019-04-25T18:08:23.815Z,0.80
2019-04-25T18:10:52.458Z,0.93
2019-04-25T18:13:20.911Z,0.60
2019-04-25T18:16:00.007Z,1.03
2019-04-25T18:18:30.106Z,0.80
2019-04-25T18:20:58.554Z,0.80
2019-04-25T18:23:46.801Z,1.10
2019-04-25T18:26:22.599Z,0.80
2019-04-25T18:28:52.693Z,0.90
2019-04-25T18:31:21.182Z,0.90
2019-04-25T18:33:51.323Z,1.00
2019-04-25T18:36:33.466Z,1.10
2019-04-25T18:39:06.252Z,0.80
2019-04-25T18:41:42.311Z,1.00
2019-04-25T18:44:12.424Z,1.50
2019-04-25T18:46:42.623Z,0.60
2019-04-25T18:49:11.973Z,1.10
2019-04-25T18:51:41.007Z,1.00
2019-04-25T18:54:11.160Z,1.10
2019-04-25T18:56:41.241Z,0.90
2019-04-25T18:59:11.334Z,1.00
2019-04-25T19:01:43.893Z,2.60
2019-04-25T19:04:14.042Z,1.20
2019-04-25T19:06:51.868Z,1.60
2019-04-25T19:09:12.738Z,0.90
2019-04-25T19:11:41.190Z,0.90
2019-04-25T19:14:09.707Z,1.90
2019-04-25T19:16:38.810Z,1.10
2019-04-25T19:19:08.186Z,1.00
2019-04-25T19:21:36.652Z,0.90
2019-04-25T19:24:05.858Z,0.80
2019-04-25T19:26:34.569Z,0.80
2019-04-25T19:29:03.137Z,0.80
2019-04-25T19:31:31.660Z,1.63
2019-04-25T19:34:00.171Z,1.00
2019-04-25T19:36:28.638Z,1.30
2019-04-25T19:38:57.084Z,1.40
2019-04-25T19:41:27.180Z,1.87
2019-04-25T19:43:57.261Z,1.73
2019-04-25T19:46:27.382Z,1.10
2019-04-25T19:48:55.849Z,0.77
2019-04-25T19:51:26.447Z,0.77
2019-04-25T19:53:54.483Z,1.40
2019-04-25T19:56:22.937Z,1.33
2019-04-25T19:58:51.399Z,0.77
2019-04-25T20:01:19.877Z,1.10
2019-04-25T20:03:55.636Z,1.00
2019-04-25T20:06:27.731Z,0.80
2019-04-25T20:09:00.827Z,1.00
2019-04-25T20:11:39.645Z,1.20
2019-04-25T20:14:08.178Z,0.80
2019-04-25T20:16:38.264Z,0.87
2019-04-25T20:19:09.352Z,1.07
2019-04-25T20:21:36.863Z,0.90
2019-04-25T20:24:05.411Z,0.80
2019-04-25T20:26:33.856Z,0.93
2019-04-25T20:29:02.330Z,0.90
2019-04-25T20:31:30.765Z,0.73
2019-04-25T20:34:05.330Z,1.10
2019-04-25T20:36:30.003Z,1.60
2019-04-25T20:38:58.472Z,1.03
2019-04-25T20:41:26.919Z,1.20
2019-04-25T20:43:55.487Z,1.17
2019-04-25T20:46:23.955Z,0.83
2019-04-25T20:48:52.428Z,0.70
2019-04-25T20:51:20.883Z,0.60
2019-04-25T20:53:49.410Z,0.80
2019-04-25T20:56:17.862Z,0.60
2019-04-25T20:58:47.702Z,0.70
2019-04-25T21:01:16.335Z,1.30
2019-04-25T21:03:44.795Z,0.90
2019-04-25T21:06:17.857Z,0.70
2019-04-25T21:08:46.298Z,1.13
2019-04-25T21:11:14.748Z,0.80
2019-04-25T21:14:03.004Z,0.80
2019-04-25T21:16:50.517Z,0.63
2019-04-25T21:19:26.703Z,0.90
2019-04-25T21:21:55.190Z,0.67
2019-04-25T21:24:23.892Z,0.80
2019-04-25T21:26:52.715Z,1.10
2019-04-25T21:29:21.289Z,0.63
2019-04-25T21:31:51.192Z,0.70
2019-04-25T21:34:25.782Z,1.00
2019-04-25T21:36:49.906Z,0.90
2019-04-25T21:39:37.277Z,0.80
2019-04-25T21:42:07.533Z,0.70
2019-04-25T21:44:36.275Z,0.77
2019-04-25T21:47:04.716Z,0.80
2019-04-25T21:49:33.435Z,0.50
2019-04-25T21:52:01.891Z,0.70
2019-04-25T21:54:30.820Z,0.80
2019-04-25T21:56:59.525Z,0.70
2019-04-25T21:59:28.377Z,0.70
2019-04-25T22:01:58.044Z,0.60
2019-04-25T22:04:38.251Z,0.90
2019-04-25T22:06:57.319Z,0.80
2019-04-25T22:09:26.389Z,0.60
2019-04-25T22:11:56.336Z,0.63
2019-04-25T22:14:25.404Z,0.90
2019-04-25T22:16:54.137Z,0.60
2019-04-25T22:19:24.052Z,0.93
2019-04-25T22:21:52.889Z,0.73
2019-04-25T22:24:21.594Z,0.80
2019-04-25T22:26:51.934Z,0.70
2019-04-25T22:29:20.475Z,0.50
2019-04-25T22:31:59.555Z,0.60
2019-04-25T22:34:32.616Z,0.57
2019-04-25T22:37:02.032Z,0.60
2019-04-25T22:39:30.565Z,0.60
2019-04-25T22:41:59.581Z,0.77
2019-04-25T22:44:29.042Z,0.80
2019-04-25T22:46:57.855Z,0.60
2019-04-25T22:49:26.398Z,0.60
2019-04-25T22:51:54.858Z,0.50
2019-04-25T22:54:24.187Z,0.70
2019-04-25T22:56:52.806Z,0.50
2019-04-25T22:59:21.547Z,0.50
2019-04-25T23:01:51.633Z,0.70
2019-04-25T23:04:30.531Z,0.60
2019-04-25T23:06:58.974Z,0.60
2019-04-25T23:09:27.448Z,0.60
2019-04-25T23:11:56.951Z,0.70
2019-04-25T23:14:25.609Z,0.60
2019-04-25T23:16:54.070Z,0.50
2019-04-25T23:19:22.597Z,0.60
2019-04-25T23:21:51.334Z,0.57
2019-04-25T23:24:21.427Z,0.60
2019-04-25T23:27:04.850Z,0.63
2019-04-25T23:29:34.035Z,0.80
2019-04-25T23:32:02.493Z,0.60
2019-04-25T23:34:31.223Z,0.60
2019-04-25T23:36:59.733Z,0.80
2019-04-25T23:39:28.371Z,0.60
2019-04-25T23:41:56.880Z,0.70
2019-04-25T23:44:25.406Z,0.60
2019-04-25T23:46:54.186Z,0.50
2019-04-25T23:49:22.800Z,0.70
2019-04-25T23:51:51.430Z,0.60
2019-04-25T23:54:19.975Z,0.60
2019-04-25T23:56:48.411Z,0.60
2019-04-25T23:59:17.734Z,0.60
